x

Isle Of Shoals, Nh (iosn3) Weather Station

8:00am - Sat 18th Nov 2017 All times are EST. -5 hours from GMT.

  • Wind
    13mph, 15mph gusts
  • Air Temp 32°f
  • Sea Pressure 1014.7mb
  • Isle Of Shoals, Nh
  • Isle Of Shoals, Nh

More Historic Weather Station data

Upgrade to MSW Pro to gain access to the past 30 days of data for over 8000 Wavebouys and Weather Stations around the globe.

Join

Comparision Forecast

View Surf forecast
   
Sat 11/18 8:00am 13 15 mph 1014.7mb 32f
7:00am 9 10 mph 1014.1mb 32f
6:00am 15 17 mph 1014.1mb 31f
5:00am 15 16 mph 1014.1mb 32f
4:00am 9 11 mph 1013.9mb 32f
3:00am 13 14 mph 1014mb 33f
2:00am 18 21 mph 1014.6mb 31f
1:00am 15 18 mph 1014.6mb 31f
12:00am 16 18 mph 1014.5mb 32f
Fri 11/17 11:00pm 18 21 mph 1014.5mb 32f
10:00pm 17 21 mph 1014.9mb 33f
9:00pm 20 22 mph 1014.3mb 33f
8:00pm 23 28 mph 1014.1mb 34f
7:00pm 26 30 mph 1013.4mb 35f
6:00pm 29 32 mph 1012.7mb 35f
5:00pm 25 29 mph 1012.5mb 36f
4:00pm 28 30 mph 1011.5mb 37f
3:00pm 28 36 mph 1010.4mb 38f
2:00pm 28 30 mph 1009.7mb 38f
1:00pm 31 37 mph 1009.4mb 37f
12:00pm 33 39 mph 1009.1mb 36f
11:00am 36 41 mph 1009.2mb 37f
10:00am 34 44 mph 1009.2mb 37f
9:00am 33 37 mph 1008.8mb 37f
8:00am 34 38 mph 1008mb 37f
7:00am 36 41 mph 1006.8mb 38f
6:00am 31 37 mph 1005.8mb 39f
5:00am 30 36 mph 1004.7mb 40f
4:00am 31 36 mph 1003.7mb 40f
3:00am 31 36 mph 1003.4mb 42f
2:00am 29 32 mph 1003.3mb 42f
1:00am 28 30 mph 1003mb 42f
12:00am 16 21 mph 1003.8mb 42f
Thu 11/16 11:00pm 11 13 mph 1004.1mb 43f
10:00pm 14 16 mph 1004.5mb 42f
9:00pm 16 17 mph 1004.7mb 42f
8:00pm 17 18 mph 1004.1mb 44f
7:00pm 16 18 mph 1004.3mb 45f
6:00pm 7 8 mph 1004.6mb 47f
5:00pm 5 6 mph 1004.7mb 47f
4:00pm 3 5 mph 1005.5mb 47f
3:00pm 13 14 mph 1006.1mb 47f
2:00pm 25 29 mph 1006.6mb 47f
1:00pm 23 25 mph 1007mb 48f
12:00pm 28 30 mph 1009.1mb 48f
11:00am 29 31 mph 1011mb 48f
10:00am 32 36 mph 1012.1mb 47f
9:00am 28 31 mph 1013mb 47f
8:00am 28 30 mph 1013.8mb 47f
7:00am 23 24 mph 1014.3mb 47f
6:00am 22 25 mph 1015.3mb 46f
5:00am 21 22 mph 1016.5mb 45f
4:00am 17 20 mph 1017.1mb 44f
3:00am 16 18 mph 1017.5mb 44f
2:00am 13 14 mph 1019.1mb 42f
1:00am 6 7 mph 1019.7mb 41f
12:00am 7 9 mph 1020.3mb 41f
Wed 11/15 11:00pm 9 10 mph 1020.5mb 40f
10:00pm 8 10 mph 1021.8mb 40f
9:00pm 7 9 mph 1022.3mb 40f
8:00pm 9 11 mph 1022.4mb 40f
7:00pm 9 13 mph 1022.9mb 40f
6:00pm 6 8 mph 1023.4mb 40f
5:00pm 8 9 mph 1023.4mb 39f
4:00pm 9 11 mph 1023.1mb 40f
3:00pm 7 9 mph 1023.4mb 40f
2:00pm 6 7 mph 1024.5mb 40f
1:00pm 10 11 mph 1024.2mb 39f
12:00pm 11 15 mph 1024.7mb 39f
11:00am 13 14 mph 1025.8mb 39f
10:00am 14 16 mph 1026.8mb 39f
9:00am 14 16 mph 1026.7mb 39f
8:00am 17 18 mph 1026.8mb 38f
7:00am 15 17 mph 1026.8mb 38f
6:00am 15 16 mph 1026.6mb 37f
5:00am 14 16 mph 1026.5mb 37f
4:00am 15 16 mph 1026.2mb 38f
3:00am 15 16 mph 1025.9mb 39f
2:00am 17 20 mph 1026.2mb 39f
1:00am 14 16 mph 1026.1mb 40f
12:00am 16 18 mph 1026.2mb 39f
Tue 11/14 11:00pm 13 16 mph 1026.2mb 40f
10:00pm 16 20 mph 1026.3mb 40f
9:00pm 15 17 mph 1026.6mb 41f
8:00pm 15 17 mph 1026.3mb 40f
7:00pm 15 16 mph 1026.3mb 42f
6:00pm 16 17 mph 1026.5mb 41f
5:00pm 14 16 mph 1026.2mb 42f
4:00pm 11 15 mph 1026mb 42f
3:00pm 13 15 mph 1025.9mb 41f